createdAt,value
2023-03-27T00:00:47.967Z,82.46
2023-03-27T00:01:47.996Z,82.87
2023-03-27T00:02:48.067Z,82.46
2023-03-27T00:03:47.978Z,83.70
2023-03-27T00:04:47.952Z,82.87
2023-03-27T00:05:47.909Z,83.60
2023-03-27T00:06:47.893Z,83.39
2023-03-27T00:07:47.889Z,83.50
2023-03-27T00:08:47.868Z,83.91
2023-03-27T00:09:47.857Z,83.70
2023-03-27T00:10:47.846Z,84.33
2023-03-27T00:11:47.839Z,84.22
2023-03-27T00:12:47.835Z,84.22
2023-03-27T00:13:50.337Z,84.37
2023-03-27T00:14:47.803Z,84.58
2023-03-27T00:15:47.788Z,84.89
2023-03-27T00:16:47.782Z,85.10
2023-03-27T00:17:47.843Z,84.99
2023-03-27T00:18:47.766Z,85.20
2023-03-27T00:19:47.739Z,85.30
2023-03-27T00:20:47.729Z,84.74
2023-03-27T00:21:47.716Z,85.16
2023-03-27T00:22:47.702Z,84.74
2023-03-27T00:23:47.690Z,84.01
2023-03-27T00:24:47.681Z,84.01
2023-03-27T00:25:47.665Z,84.64
2023-03-27T00:26:47.655Z,84.95
2023-03-27T00:27:47.640Z,84.74
2023-03-27T00:28:47.627Z,84.84
2023-03-27T00:29:47.621Z,85.26
2023-03-27T00:30:47.686Z,84.84
2023-03-27T00:31:47.589Z,85.16
2023-03-27T00:32:47.607Z,84.64
2023-03-27T00:33:47.567Z,84.95
2023-03-27T00:34:47.559Z,84.84
2023-03-27T00:35:47.707Z,84.78
2023-03-27T00:36:47.531Z,85.16
2023-03-27T00:37:47.518Z,84.84
2023-03-27T00:38:47.506Z,85.51
2023-03-27T00:39:47.492Z,84.74
2023-03-27T00:40:47.543Z,85.36
2023-03-27T00:41:47.478Z,85.82
2023-03-27T00:42:47.454Z,85.41
2023-03-27T00:43:47.444Z,84.68
2023-03-27T00:44:47.432Z,85.30
2023-03-27T00:45:47.451Z,84.99
2023-03-27T00:46:47.424Z,85.41
2023-03-27T00:47:47.468Z,85.10
2023-03-27T00:48:47.410Z,85.20
2023-03-27T00:49:47.368Z,85.20
2023-03-27T00:50:47.360Z,85.72
2023-03-27T00:51:47.426Z,85.10
2023-03-27T00:52:47.344Z,85.30
2023-03-27T00:53:47.320Z,85.93
2023-03-27T00:54:47.310Z,86.13
2023-03-27T00:55:47.297Z,85.93
2023-03-27T00:56:47.348Z,86.44
2023-03-27T00:57:47.273Z,85.96
2023-03-27T00:58:47.257Z,85.86
2023-03-27T00:59:47.246Z,85.75
2023-03-27T01:00:47.236Z,86.17
2023-03-27T01:01:47.239Z,86.17
2023-03-27T01:02:47.276Z,86.27
2023-03-27T01:03:47.481Z,86.17
2023-03-27T01:04:47.187Z,86.27
2023-03-27T01:05:47.174Z,85.86
2023-03-27T01:06:47.162Z,86.69
2023-03-27T01:08:00.859Z,86.59
2023-03-27T01:08:47.183Z,86.63
2023-03-27T01:09:47.116Z,86.38
2023-03-27T01:10:47.107Z,87.15
2023-03-27T01:11:47.092Z,87.15
2023-03-27T01:12:47.085Z,86.83
2023-03-27T01:13:47.161Z,87.35
2023-03-27T01:14:47.053Z,87.25
2023-03-27T01:15:47.079Z,87.15
2023-03-27T01:16:47.042Z,87.88
2023-03-27T01:17:47.072Z,87.98
2023-03-27T01:18:47.070Z,87.73
2023-03-27T01:19:46.993Z,88.19
2023-03-27T01:20:46.989Z,88.19
2023-03-27T01:21:46.964Z,88.19
2023-03-27T01:22:46.977Z,87.77
2023-03-27T01:23:59.940Z,87.84
2023-03-27T01:24:46.930Z,87.66
2023-03-27T01:25:46.927Z,86.90
2023-03-27T01:26:46.910Z,87.01
2023-03-27T01:27:46.891Z,87.01
2023-03-27T01:28:46.883Z,86.38
2023-03-27T01:29:46.882Z,86.27
2023-03-27T01:30:46.854Z,86.17
2023-03-27T01:31:46.876Z,86.80
2023-03-27T01:32:46.869Z,86.07
2023-03-27T01:33:46.814Z,86.07
2023-03-27T01:34:46.838Z,86.80
2023-03-27T01:35:46.805Z,86.59
2023-03-27T01:36:46.780Z,86.80
2023-03-27T01:37:46.765Z,86.80
2023-03-27T01:38:46.750Z,86.90
2023-03-27T01:39:46.737Z,87.21
2023-03-27T01:40:46.728Z,87.25
2023-03-27T01:41:46.716Z,87.01
2023-03-27T01:42:46.706Z,87.25
2023-03-27T01:43:46.688Z,87.04
2023-03-27T01:44:46.674Z,87.04
2023-03-27T01:45:46.666Z,87.46
2023-03-27T01:46:46.690Z,87.98
2023-03-27T01:47:46.676Z,87.35
2023-03-27T01:48:46.633Z,87.88
2023-03-27T01:49:46.611Z,87.15
2023-03-27T01:50:46.626Z,87.77
2023-03-27T01:51:46.592Z,87.98
2023-03-27T01:52:46.574Z,87.98
2023-03-27T01:53:46.563Z,88.09
2023-03-27T01:54:46.575Z,87.56
2023-03-27T01:55:46.544Z,87.88
2023-03-27T01:56:46.541Z,88.09
2023-03-27T01:57:49.102Z,87.88
2023-03-27T01:58:46.497Z,87.15
2023-03-27T01:59:46.509Z,87.66
2023-03-27T02:00:51.034Z,88.19
2023-03-27T02:01:46.517Z,87.88
2023-03-27T02:02:46.465Z,87.98
2023-03-27T02:03:46.449Z,87.77
2023-03-27T02:04:46.440Z,88.09
2023-03-27T02:05:46.414Z,87.77
2023-03-27T02:06:46.398Z,87.98
2023-03-27T02:07:46.384Z,87.25
2023-03-27T02:08:46.374Z,87.66
2023-03-27T02:09:46.363Z,87.66
2023-03-27T02:10:46.474Z,87.35
2023-03-27T02:11:46.336Z,86.83
2023-03-27T02:12:46.326Z,86.94
2023-03-27T02:13:46.312Z,87.56
2023-03-27T02:14:46.305Z,87.56
2023-03-27T02:15:46.289Z,87.77
2023-03-27T02:16:46.497Z,88.54
2023-03-27T02:17:46.277Z,88.12
2023-03-27T02:18:46.244Z,88.33
2023-03-27T02:19:46.249Z,88.54
2023-03-27T02:20:46.224Z,88.33
2023-03-27T02:21:46.210Z,88.27
2023-03-27T02:22:46.198Z,88.27
2023-03-27T02:23:46.183Z,88.27
2023-03-27T02:24:46.181Z,88.48
2023-03-27T02:25:46.159Z,88.17
2023-03-27T02:26:46.145Z,88.27
2023-03-27T02:27:46.135Z,87.43
2023-03-27T02:28:46.134Z,86.81
2023-03-27T02:29:46.109Z,87.54
2023-03-27T02:30:46.092Z,87.23
2023-03-27T02:31:46.147Z,86.71
2023-03-27T02:32:46.201Z,86.75
2023-03-27T02:33:46.116Z,86.33
2023-03-27T02:34:46.043Z,86.29
2023-03-27T02:35:46.125Z,86.33
2023-03-27T02:36:46.016Z,86.22
2023-03-27T02:37:46.003Z,86.96
2023-03-27T02:38:45.987Z,86.22
2023-03-27T02:39:45.978Z,86.33
2023-03-27T02:40:45.978Z,86.43
2023-03-27T02:41:45.959Z,86.33
2023-03-27T02:42:45.942Z,86.54
2023-03-27T02:43:45.922Z,85.91
2023-03-27T02:44:47.364Z,86.12
2023-03-27T02:45:45.907Z,86.06
2023-03-27T02:46:45.886Z,85.60
2023-03-27T02:47:45.947Z,85.91
2023-03-27T02:48:45.859Z,86.43
2023-03-27T02:49:45.846Z,86.43
2023-03-27T02:50:45.845Z,86.33
2023-03-27T02:51:45.834Z,86.22
2023-03-27T02:52:45.823Z,86.02
2023-03-27T02:53:45.793Z,85.81
2023-03-27T02:54:45.787Z,85.08
2023-03-27T02:55:45.779Z,85.29
2023-03-27T02:56:45.786Z,84.87
2023-03-27T02:57:52.031Z,84.56
2023-03-27T02:58:45.729Z,84.66
2023-03-27T02:59:45.730Z,84.94
2023-03-27T03:00:45.712Z,83.94
2023-03-27T03:01:45.758Z,84.52
2023-03-27T03:02:45.800Z,83.80
2023-03-27T03:03:45.665Z,83.48
2023-03-27T03:04:45.656Z,83.94
2023-03-27T03:05:45.640Z,83.83
2023-03-27T03:06:45.630Z,83.94
2023-03-27T03:07:45.613Z,84.35
2023-03-27T03:08:45.598Z,83.73
2023-03-27T03:09:45.593Z,83.94
2023-03-27T03:10:45.577Z,83.94
2023-03-27T03:11:45.562Z,83.83
2023-03-27T03:12:45.552Z,84.14
2023-03-27T03:13:45.556Z,84.04
2023-03-27T03:14:45.526Z,84.66
2023-03-27T03:15:45.507Z,84.50
2023-03-27T03:16:45.506Z,84.18
2023-03-27T03:17:45.495Z,83.94
2023-03-27T03:18:45.480Z,83.94
2023-03-27T03:19:45.469Z,84.87
2023-03-27T03:20:45.448Z,85.33
2023-03-27T03:21:45.431Z,85.33
2023-03-27T03:22:45.417Z,85.64
2023-03-27T03:23:58.182Z,84.74
2023-03-27T03:24:45.392Z,86.10
2023-03-27T03:25:45.379Z,86.20
2023-03-27T03:26:45.372Z,86.10
2023-03-27T03:27:45.349Z,86.20
2023-03-27T03:29:01.035Z,86.51
2023-03-27T03:29:45.327Z,86.30
2023-03-27T03:30:45.338Z,86.30
2023-03-27T03:31:45.298Z,86.41
2023-03-27T03:32:45.296Z,86.51
2023-03-27T03:33:45.268Z,86.41
2023-03-27T03:34:45.261Z,86.41
2023-03-27T03:35:45.267Z,86.30
2023-03-27T03:36:45.234Z,87.04
2023-03-27T03:37:45.217Z,86.93
2023-03-27T03:38:45.203Z,86.97
2023-03-27T03:39:45.201Z,87.39
2023-03-27T03:40:45.178Z,87.07
2023-03-27T03:41:45.166Z,88.12
2023-03-27T03:42:45.150Z,88.22
2023-03-27T03:43:45.135Z,88.53
2023-03-27T03:44:45.123Z,88.47
2023-03-27T03:45:45.144Z,88.57
2023-03-27T03:46:45.099Z,88.37
2023-03-27T03:47:45.129Z,88.26
2023-03-27T03:48:45.073Z,89.20
2023-03-27T03:49:45.063Z,89.41
2023-03-27T03:50:45.042Z,89.51
2023-03-27T03:51:45.029Z,89.45
2023-03-27T03:52:45.016Z,89.97
2023-03-27T03:53:45.007Z,89.62
2023-03-27T03:54:46.745Z,89.62
2023-03-27T03:55:44.978Z,89.62
2023-03-27T03:56:45.005Z,90.03
2023-03-27T03:57:44.951Z,90.25
2023-03-27T03:58:44.941Z,89.31
2023-03-27T03:59:44.932Z,89.45
2023-03-27T04:00:44.904Z,90.08
2023-03-27T04:01:44.915Z,90.08
2023-03-27T04:02:44.943Z,90.08
2023-03-27T04:03:44.965Z,90.28
2023-03-27T04:04:46.578Z,90.70
2023-03-27T04:05:44.870Z,90.60
2023-03-27T04:06:44.845Z,90.70
2023-03-27T04:07:44.811Z,90.91
2023-03-27T04:08:44.812Z,91.02
2023-03-27T04:09:44.786Z,90.81
2023-03-27T04:10:44.776Z,90.91
2023-03-27T04:11:44.806Z,90.81
2023-03-27T04:12:44.739Z,90.70
2023-03-27T04:13:44.729Z,91.12
2023-03-27T04:14:44.721Z,91.12
2023-03-27T04:15:44.729Z,91.12
2023-03-27T04:16:44.703Z,91.37
2023-03-27T04:17:44.726Z,91.27
2023-03-27T04:18:44.732Z,91.58
2023-03-27T04:19:44.654Z,91.58
2023-03-27T04:20:44.633Z,91.69
2023-03-27T04:21:44.627Z,91.58
2023-03-27T04:22:44.607Z,91.47
2023-03-27T04:23:44.593Z,91.47
2023-03-27T04:24:44.613Z,91.47
2023-03-27T04:25:44.596Z,91.16
2023-03-27T04:26:44.558Z,91.47
2023-03-27T04:27:44.544Z,91.47
2023-03-27T04:28:44.530Z,91.47
2023-03-27T04:29:44.516Z,91.06
2023-03-27T04:30:44.541Z,90.85
2023-03-27T04:31:44.579Z,90.64
2023-03-27T04:32:44.489Z,90.43
2023-03-27T04:33:44.464Z,90.33
2023-03-27T04:34:44.466Z,90.22
2023-03-27T04:35:44.453Z,90.22
2023-03-27T04:36:44.427Z,89.59
2023-03-27T04:37:44.409Z,89.70
2023-03-27T04:38:44.396Z,89.81
2023-03-27T04:39:44.384Z,89.70
2023-03-27T04:40:44.365Z,89.81
2023-03-27T04:41:44.352Z,90.06
2023-03-27T04:42:44.336Z,89.59
2023-03-27T04:43:44.340Z,90.22
2023-03-27T04:44:44.359Z,90.26
2023-03-27T04:45:44.307Z,90.64
2023-03-27T04:46:44.383Z,90.64
2023-03-27T04:47:44.334Z,90.58
2023-03-27T04:48:44.260Z,91.10
2023-03-27T04:49:44.246Z,90.64
2023-03-27T04:50:44.231Z,90.53
2023-03-27T04:51:44.219Z,90.64
2023-03-27T04:52:44.220Z,90.85
2023-03-27T04:53:44.187Z,90.75
2023-03-27T04:54:44.178Z,90.64
2023-03-27T04:55:44.171Z,90.75
2023-03-27T04:56:44.158Z,90.75
2023-03-27T04:57:44.137Z,90.64
2023-03-27T04:58:44.132Z,90.64
2023-03-27T04:59:44.106Z,90.64
2023-03-27T05:00:44.120Z,90.75
2023-03-27T05:01:44.124Z,90.68
2023-03-27T05:02:44.098Z,90.64
2023-03-27T05:03:44.163Z,90.47
2023-03-27T05:04:44.043Z,90.47
2023-03-27T05:05:44.037Z,90.43
2023-03-27T05:06:44.013Z,90.12
2023-03-27T05:07:43.997Z,90.26
2023-03-27T05:08:43.980Z,90.37
2023-03-27T05:09:43.971Z,90.06
2023-03-27T05:10:43.953Z,90.06
2023-03-27T05:11:43.942Z,90.16
2023-03-27T05:12:43.929Z,89.95
2023-03-27T05:13:43.913Z,90.06
2023-03-27T05:14:43.900Z,90.16
2023-03-27T05:15:43.887Z,89.53
2023-03-27T05:16:43.905Z,89.64
2023-03-27T05:17:43.896Z,89.43
2023-03-27T05:18:43.847Z,89.53
2023-03-27T05:19:43.834Z,89.74
2023-03-27T05:20:43.822Z,90.06
2023-03-27T05:21:43.802Z,90.16
2023-03-27T05:22:43.797Z,89.74
2023-03-27T05:23:43.772Z,89.64
2023-03-27T05:24:43.766Z,89.74
2023-03-27T05:25:43.746Z,89.70
2023-03-27T05:26:43.734Z,89.01
2023-03-27T05:27:43.723Z,89.81
2023-03-27T05:28:43.712Z,88.90
2023-03-27T05:29:47.578Z,89.22
2023-03-27T05:30:43.748Z,88.97
2023-03-27T05:31:43.672Z,88.24
2023-03-27T05:32:43.685Z,88.45
2023-03-27T05:33:43.638Z,88.70
2023-03-27T05:34:43.624Z,88.59
2023-03-27T05:35:43.640Z,88.34
2023-03-27T05:36:43.593Z,88.87
2023-03-27T05:37:43.582Z,88.76
2023-03-27T05:38:43.574Z,88.87
2023-03-27T05:39:43.555Z,88.65
2023-03-27T05:40:43.545Z,88.41
2023-03-27T05:41:43.524Z,88.09
2023-03-27T05:42:43.512Z,87.68
2023-03-27T05:43:43.503Z,87.37
2023-03-27T05:44:43.481Z,87.47
2023-03-27T05:45:43.490Z,86.69
2023-03-27T05:46:43.477Z,86.91
2023-03-27T05:47:43.467Z,86.35
2023-03-27T05:48:43.433Z,86.30
2023-03-27T05:49:43.415Z,85.02
2023-03-27T05:50:43.402Z,83.09
2023-03-27T05:51:46.867Z,79.90
2023-03-27T05:52:43.408Z,77.95
2023-03-27T05:53:43.360Z,77.16
2023-03-27T05:54:43.347Z,75.84
2023-03-27T05:55:43.357Z,72.77
2023-03-27T05:56:43.431Z,71.57
2023-03-27T05:57:43.332Z,70.12
2023-03-27T05:58:43.297Z,69.37
2023-03-27T05:59:43.298Z,68.92
2023-03-27T06:00:43.278Z,68.30
2023-03-27T06:01:43.279Z,67.75
2023-03-27T06:02:43.505Z,67.72
2023-03-27T06:03:43.360Z,66.07
2023-03-27T06:04:43.269Z,65.86
2023-03-27T06:05:43.211Z,65.76
2023-03-27T06:06:43.207Z,65.48
2023-03-27T06:07:43.647Z,65.86
2023-03-27T06:08:43.177Z,65.97
2023-03-27T06:09:43.164Z,65.66
2023-03-27T06:10:43.163Z,65.59
2023-03-27T06:11:43.147Z,64.22
2023-03-27T06:12:43.166Z,62.54
2023-03-27T06:13:43.123Z,62.65
2023-03-27T06:14:43.105Z,61.98
2023-03-27T06:15:43.163Z,63.40
2023-03-27T06:16:43.087Z,62.54
2023-03-27T06:17:43.092Z,61.10
2023-03-27T06:18:43.063Z,62.10
2023-03-27T06:19:43.049Z,61.00
2023-03-27T06:20:43.049Z,61.25
2023-03-27T06:21:43.026Z,60.35
2023-03-27T06:22:43.018Z,60.33
2023-03-27T06:23:43.011Z,60.50
2023-03-27T06:24:42.995Z,59.83
2023-03-27T06:25:42.999Z,59.39
2023-03-27T06:26:42.978Z,57.75
2023-03-27T06:27:42.972Z,58.39
2023-03-27T06:28:42.953Z,58.80
2023-03-27T06:29:42.941Z,60.12
2023-03-27T06:30:42.937Z,62.37
2023-03-27T06:31:42.974Z,63.53
2023-03-27T06:32:42.972Z,63.53
2023-03-27T06:33:42.905Z,63.56
2023-03-27T06:34:42.888Z,65.51
2023-03-27T06:35:42.924Z,66.57
2023-03-27T06:36:42.863Z,67.85
2023-03-27T06:37:42.957Z,68.32
2023-03-27T06:38:42.876Z,69.49
2023-03-27T06:39:42.844Z,69.90
2023-03-27T06:40:42.826Z,70.76
2023-03-27T06:41:42.822Z,70.97
2023-03-27T06:42:43.335Z,71.94
2023-03-27T06:43:42.793Z,72.08
2023-03-27T06:44:42.795Z,72.80
2023-03-27T06:45:42.777Z,73.22
2023-03-27T06:46:45.570Z,73.22
2023-03-27T06:47:53.791Z,73.22
2023-03-27T06:48:42.789Z,73.57
2023-03-27T06:49:42.723Z,73.84
2023-03-27T06:50:42.714Z,74.50
2023-03-27T06:51:42.712Z,73.67
2023-03-27T06:52:42.692Z,75.02
2023-03-27T06:53:42.722Z,75.12
2023-03-27T06:54:42.676Z,75.33
2023-03-27T06:55:42.664Z,75.12
2023-03-27T06:56:42.643Z,74.84
2023-03-27T06:57:42.642Z,75.15
2023-03-27T06:58:42.623Z,75.29
2023-03-27T06:59:42.609Z,75.40
2023-03-27T07:00:42.630Z,75.26
2023-03-27T07:01:42.636Z,72.05
2023-03-27T07:02:42.602Z,69.78
2023-03-27T07:03:42.560Z,67.85
2023-03-27T07:04:48.409Z,66.61
2023-03-27T07:05:42.609Z,67.71
2023-03-27T07:06:42.518Z,68.15
2023-03-27T07:07:42.569Z,70.42
2023-03-27T07:08:42.529Z,71.56
2023-03-27T07:09:42.494Z,72.19
2023-03-27T07:10:42.470Z,72.11
2023-03-27T07:11:42.473Z,72.56
2023-03-27T07:12:42.498Z,72.56
2023-03-27T07:13:42.619Z,73.39
2023-03-27T07:14:42.423Z,73.18
2023-03-27T07:15:42.415Z,73.94
2023-03-27T07:16:42.491Z,74.57
2023-03-27T07:17:49.031Z,74.98
2023-03-27T07:18:42.380Z,75.43
2023-03-27T07:19:42.362Z,75.85
2023-03-27T07:20:42.350Z,75.60
2023-03-27T07:21:42.343Z,75.85
2023-03-27T07:22:42.327Z,75.50
2023-03-27T07:23:42.313Z,75.09
2023-03-27T07:24:42.301Z,74.32
2023-03-27T07:25:42.297Z,74.11
2023-03-27T07:26:42.284Z,73.28
2023-03-27T07:27:42.267Z,73.43
2023-03-27T07:28:42.253Z,72.60
2023-03-27T07:29:42.243Z,73.22
2023-03-27T07:30:42.231Z,72.60
2023-03-27T07:31:55.890Z,72.70
2023-03-27T07:32:42.308Z,73.43
2023-03-27T07:33:42.299Z,73.08
2023-03-27T07:34:42.180Z,71.45
2023-03-27T07:35:42.245Z,71.97
2023-03-27T07:36:42.161Z,71.87
2023-03-27T07:37:42.147Z,72.18
2023-03-27T07:38:42.168Z,73.32
2023-03-27T07:39:42.140Z,73.01
2023-03-27T07:40:42.162Z,73.01
2023-03-27T07:41:42.220Z,73.01
2023-03-27T07:42:42.090Z,73.11
2023-03-27T07:43:42.084Z,71.42
2023-03-27T07:44:42.058Z,71.84
2023-03-27T07:45:42.168Z,72.15
2023-03-27T07:46:42.039Z,71.77
2023-03-27T07:47:42.055Z,70.31
2023-03-27T07:48:42.015Z,70.62
2023-03-27T07:49:42.004Z,70.83
2023-03-27T07:50:41.995Z,70.83
2023-03-27T07:51:41.981Z,71.14
2023-03-27T07:52:41.966Z,71.25
2023-03-27T07:53:41.954Z,71.45
2023-03-27T07:54:41.945Z,71.35
2023-03-27T07:55:41.928Z,71.91
2023-03-27T07:56:41.945Z,71.91
2023-03-27T07:57:58.072Z,71.80
2023-03-27T07:58:41.927Z,72.18
2023-03-27T07:59:41.881Z,72.84
2023-03-27T08:00:41.872Z,72.94
2023-03-27T08:01:41.871Z,71.80
2023-03-27T08:02:41.871Z,70.97
2023-03-27T08:03:42.059Z,71.28
2023-03-27T08:04:41.944Z,71.87
2023-03-27T08:05:41.809Z,70.73
2023-03-27T08:06:41.798Z,70.52
2023-03-27T08:07:41.782Z,71.01
2023-03-27T08:08:41.775Z,70.80
2023-03-27T08:09:41.760Z,71.39
2023-03-27T08:10:41.836Z,71.08
2023-03-27T08:11:41.736Z,70.42
2023-03-27T08:12:41.726Z,69.29
2023-03-27T08:13:41.713Z,68.56
2023-03-27T08:14:41.712Z,68.01
2023-03-27T08:15:41.683Z,67.70
2023-03-27T08:16:41.779Z,66.18
2023-03-27T08:17:41.753Z,65.59
2023-03-27T08:18:41.653Z,66.00
2023-03-27T08:19:41.637Z,65.41
2023-03-27T08:20:41.627Z,65.48
2023-03-27T08:21:41.637Z,66.14
2023-03-27T08:22:41.602Z,66.65
2023-03-27T08:23:41.584Z,68.07
2023-03-27T08:24:41.580Z,67.24
2023-03-27T08:25:41.564Z,64.97
2023-03-27T08:26:41.554Z,63.75
2023-03-27T08:27:41.542Z,63.62
2023-03-27T08:28:41.526Z,63.51
2023-03-27T08:29:41.518Z,64.34
2023-03-27T08:30:41.535Z,65.80
2023-03-27T08:31:41.488Z,65.59
2023-03-27T08:32:41.492Z,65.69
2023-03-27T08:33:41.475Z,65.90
2023-03-27T08:34:41.457Z,67.03
2023-03-27T08:35:41.489Z,67.03
2023-03-27T08:36:41.442Z,66.52
2023-03-27T08:37:41.455Z,65.80
2023-03-27T08:38:41.413Z,64.34
2023-03-27T08:39:41.395Z,64.27
2023-03-27T08:40:41.391Z,65.17
2023-03-27T08:41:41.382Z,65.28
2023-03-27T08:42:41.360Z,65.69
2023-03-27T08:43:41.352Z,66.38
2023-03-27T08:44:41.348Z,66.31
2023-03-27T08:45:41.326Z,66.41
2023-03-27T08:46:41.349Z,66.21
2023-03-27T08:47:41.336Z,65.80
2023-03-27T08:48:41.284Z,67.03
2023-03-27T08:49:41.277Z,66.90
2023-03-27T08:50:41.265Z,66.15
2023-03-27T08:51:41.484Z,66.25
2023-03-27T08:52:41.243Z,66.15
2023-03-27T08:53:41.234Z,65.42
2023-03-27T08:54:41.220Z,66.38
2023-03-27T08:55:41.213Z,66.49
2023-03-27T08:56:41.235Z,66.38
2023-03-27T08:57:41.186Z,65.59
2023-03-27T08:58:41.169Z,64.34
2023-03-27T08:59:41.156Z,63.79
2023-03-27T09:00:41.141Z,62.87
2023-03-27T09:01:41.245Z,63.48
2023-03-27T09:02:41.158Z,62.97
2023-03-27T09:03:41.186Z,63.07
2023-03-27T09:04:41.104Z,63.87
2023-03-27T09:05:41.084Z,64.18
2023-03-27T09:06:41.075Z,64.04
2023-03-27T09:07:41.068Z,64.67
2023-03-27T09:08:41.055Z,64.64
2023-03-27T09:09:41.043Z,64.04
2023-03-27T09:10:41.040Z,64.04
2023-03-27T09:11:41.019Z,63.74
2023-03-27T09:12:41.004Z,62.91
2023-03-27T09:13:40.993Z,63.15
2023-03-27T09:14:40.978Z,64.28
2023-03-27T09:15:41.011Z,63.35
2023-03-27T09:16:41.014Z,62.60
2023-03-27T09:17:41.021Z,62.70
2023-03-27T09:18:40.952Z,62.08
2023-03-27T09:19:40.931Z,62.88
2023-03-27T09:20:40.914Z,61.33
2023-03-27T09:21:40.899Z,60.53
2023-03-27T09:22:40.965Z,61.59
2023-03-27T09:23:40.873Z,62.21
2023-03-27T09:24:40.878Z,61.80
2023-03-27T09:25:40.853Z,62.52
2023-03-27T09:26:40.841Z,62.11
2023-03-27T09:27:40.827Z,62.32
2023-03-27T09:28:40.815Z,61.25
2023-03-27T09:29:40.834Z,62.39
2023-03-27T09:30:40.791Z,61.85
2023-03-27T09:31:40.794Z,60.53
2023-03-27T09:32:40.808Z,61.15
2023-03-27T09:33:40.761Z,60.91
2023-03-27T09:34:40.745Z,62.05
2023-03-27T09:35:40.749Z,61.22
2023-03-27T09:36:40.725Z,61.36
2023-03-27T09:37:40.710Z,62.08
2023-03-27T09:38:40.697Z,61.80
2023-03-27T09:39:40.685Z,62.08
2023-03-27T09:40:40.678Z,61.90
2023-03-27T09:41:40.667Z,61.49
2023-03-27T09:42:40.656Z,60.63
2023-03-27T09:43:40.643Z,58.25
2023-03-27T09:44:40.624Z,58.04
2023-03-27T09:45:40.644Z,58.25
2023-03-27T09:46:40.684Z,57.71
2023-03-27T09:47:40.680Z,58.02
2023-03-27T09:48:40.581Z,58.87
2023-03-27T09:49:40.566Z,58.25
2023-03-27T09:50:40.562Z,59.67
2023-03-27T09:51:40.546Z,59.05
2023-03-27T09:52:40.536Z,58.12
2023-03-27T09:53:40.528Z,56.68
2023-03-27T09:54:40.514Z,56.37
2023-03-27T09:55:40.501Z,55.33
2023-03-27T09:56:40.520Z,54.27
2023-03-27T09:57:40.478Z,55.64
2023-03-27T09:58:40.473Z,55.41
2023-03-27T09:59:40.473Z,55.10
2023-03-27T10:00:40.478Z,55.82
2023-03-27T10:01:40.445Z,56.31
2023-03-27T10:02:40.442Z,56.70
2023-03-27T10:03:40.442Z,54.63
2023-03-27T10:04:40.409Z,55.36
2023-03-27T10:05:40.385Z,55.07
2023-03-27T10:06:40.372Z,54.99
2023-03-27T10:07:40.359Z,55.93
2023-03-27T10:08:40.346Z,56.77
2023-03-27T10:09:40.340Z,57.17
2023-03-27T10:10:40.325Z,56.57
2023-03-27T10:11:40.319Z,57.40
2023-03-27T10:12:40.297Z,57.42
2023-03-27T10:13:40.290Z,57.42
2023-03-27T10:14:40.279Z,57.12
2023-03-27T10:15:40.269Z,55.95
2023-03-27T10:16:40.332Z,54.71
2023-03-27T10:17:40.338Z,53.05
2023-03-27T10:18:40.232Z,53.86
2023-03-27T10:19:40.229Z,53.55
2023-03-27T10:20:40.207Z,53.96
2023-03-27T10:21:40.204Z,54.25
2023-03-27T10:22:40.187Z,52.57
2023-03-27T10:23:40.249Z,51.95
2023-03-27T10:24:44.453Z,52.78
2023-03-27T10:25:40.164Z,52.36
2023-03-27T10:26:40.146Z,54.50
2023-03-27T10:27:40.147Z,52.67
2023-03-27T10:28:40.115Z,53.58
2023-03-27T10:29:41.359Z,52.57
2023-03-27T10:30:40.093Z,51.95
2023-03-27T10:31:40.113Z,52.70
2023-03-27T10:32:40.117Z,52.28
2023-03-27T10:33:40.057Z,52.51
2023-03-27T10:34:40.079Z,52.51
2023-03-27T10:35:40.076Z,52.91
2023-03-27T10:36:40.022Z,53.00
2023-03-27T10:37:40.011Z,51.68
2023-03-27T10:38:40.065Z,52.80
2023-03-27T10:39:39.989Z,51.76
2023-03-27T10:40:39.981Z,51.87
2023-03-27T10:41:39.968Z,52.05
2023-03-27T10:42:39.958Z,51.87
2023-03-27T10:43:39.940Z,51.31
2023-03-27T10:44:39.934Z,52.11
2023-03-27T10:45:39.961Z,52.39
2023-03-27T10:46:39.913Z,52.08
2023-03-27T10:47:39.921Z,51.95
2023-03-27T10:48:39.902Z,51.67
2023-03-27T10:49:39.878Z,51.34
2023-03-27T10:50:39.917Z,50.35
2023-03-27T10:51:46.495Z,50.76
2023-03-27T10:52:39.897Z,52.42
2023-03-27T10:53:39.946Z,52.29
2023-03-27T10:54:39.926Z,51.03
2023-03-27T10:55:39.802Z,50.72
2023-03-27T10:56:39.838Z,48.24
2023-03-27T10:57:39.796Z,47.42
2023-03-27T10:58:39.785Z,46.31
2023-03-27T10:59:41.895Z,48.68
2023-03-27T11:00:39.809Z,47.24
2023-03-27T11:01:39.828Z,46.31
2023-03-27T11:02:39.790Z,49.30
2023-03-27T11:03:39.785Z,48.76
2023-03-27T11:04:39.720Z,48.76
2023-03-27T11:05:39.756Z,49.66
2023-03-27T11:06:40.774Z,48.02
2023-03-27T11:07:39.676Z,48.22
2023-03-27T11:08:39.661Z,49.54
2023-03-27T11:09:39.686Z,48.43
2023-03-27T11:10:39.652Z,46.37
2023-03-27T11:11:39.626Z,48.35
2023-03-27T11:12:39.634Z,47.83
2023-03-27T11:13:39.609Z,48.14
2023-03-27T11:14:39.595Z,47.21
2023-03-27T11:15:39.593Z,45.98
2023-03-27T11:16:39.650Z,47.13
2023-03-27T11:17:39.580Z,48.16
2023-03-27T11:18:39.554Z,47.34
2023-03-27T11:19:39.546Z,47.34
2023-03-27T11:20:39.537Z,46.72
2023-03-27T11:21:39.521Z,47.34
2023-03-27T11:22:39.511Z,47.75
2023-03-27T11:23:39.506Z,48.19
2023-03-27T11:24:39.495Z,48.08
2023-03-27T11:25:39.474Z,46.74
2023-03-27T11:26:39.466Z,47.16
2023-03-27T11:27:39.475Z,48.60
2023-03-27T11:28:39.444Z,47.44
2023-03-27T11:29:39.446Z,47.55
2023-03-27T11:30:39.488Z,48.06
2023-03-27T11:31:39.540Z,44.95
2023-03-27T11:32:39.525Z,43.81
2023-03-27T11:33:39.390Z,44.23
2023-03-27T11:34:39.378Z,44.12
2023-03-27T11:35:39.379Z,45.07
2023-03-27T11:36:39.360Z,44.24
2023-03-27T11:37:39.345Z,44.56
2023-03-27T11:38:39.350Z,45.59
2023-03-27T11:39:39.335Z,46.41
2023-03-27T11:40:39.317Z,46.00
2023-03-27T11:41:39.322Z,46.43
2023-03-27T11:42:39.294Z,47.36
2023-03-27T11:43:39.279Z,48.91
2023-03-27T11:44:39.274Z,48.16
2023-03-27T11:45:39.267Z,48.16
2023-03-27T11:46:39.281Z,47.83
2023-03-27T11:47:39.322Z,46.78
2023-03-27T11:48:39.238Z,46.88
2023-03-27T11:49:39.227Z,47.30
2023-03-27T11:50:39.260Z,46.78
2023-03-27T11:51:39.203Z,45.65
2023-03-27T11:52:39.228Z,46.58
2023-03-27T11:53:39.196Z,47.21
2023-03-27T11:54:39.163Z,46.92
2023-03-27T11:55:39.158Z,46.39
2023-03-27T11:56:39.165Z,47.24
2023-03-27T11:57:39.131Z,47.03
2023-03-27T11:58:39.122Z,47.03
2023-03-27T11:59:39.107Z,47.03
2023-03-27T12:00:39.100Z,47.42
2023-03-27T12:01:39.102Z,47.75
2023-03-27T12:02:39.134Z,47.44
2023-03-27T12:03:39.156Z,47.13
2023-03-27T12:04:39.055Z,47.85
2023-03-27T12:05:39.059Z,46.62
2023-03-27T12:06:39.036Z,47.16
2023-03-27T12:07:42.115Z,47.96
2023-03-27T12:08:39.008Z,47.56
2023-03-27T12:09:39.002Z,48.29
2023-03-27T12:10:38.991Z,48.27
2023-03-27T12:11:38.975Z,47.03
2023-03-27T12:12:38.966Z,47.44
2023-03-27T12:13:42.475Z,47.31
2023-03-27T12:14:41.190Z,46.00
2023-03-27T12:15:38.929Z,45.89
2023-03-27T12:16:38.950Z,47.34
2023-03-27T12:17:38.937Z,48.45
2023-03-27T12:18:41.403Z,46.80
2023-03-27T12:19:39.422Z,48.43
2023-03-27T12:20:48.688Z,48.53
2023-03-27T12:21:38.864Z,47.01
2023-03-27T12:22:38.854Z,48.04
2023-03-27T12:23:38.850Z,48.76
2023-03-27T12:24:40.607Z,47.31
2023-03-27T12:25:38.820Z,47.83
2023-03-27T12:26:38.814Z,46.58
2023-03-27T12:27:38.798Z,47.31
2023-03-27T12:28:40.720Z,47.30
2023-03-27T12:29:38.787Z,46.16
2023-03-27T12:30:38.779Z,47.09
2023-03-27T12:31:38.791Z,46.78
2023-03-27T12:32:38.812Z,45.67
2023-03-27T12:33:38.737Z,46.92
2023-03-27T12:34:38.727Z,47.65
2023-03-27T12:35:38.722Z,47.05
2023-03-27T12:36:38.708Z,48.78
2023-03-27T12:37:38.691Z,47.75
2023-03-27T12:38:38.713Z,48.60
2023-03-27T12:39:38.669Z,48.60
2023-03-27T12:40:38.653Z,48.08
2023-03-27T12:41:38.654Z,48.47
2023-03-27T12:42:43.832Z,49.30
2023-03-27T12:43:38.619Z,49.69
2023-03-27T12:44:38.609Z,48.47
2023-03-27T12:45:47.460Z,50.10
2023-03-27T12:46:38.628Z,48.68
2023-03-27T12:47:38.614Z,48.78
2023-03-27T12:48:38.570Z,48.47
2023-03-27T12:49:47.101Z,49.43
2023-03-27T12:50:38.548Z,48.19
2023-03-27T12:51:38.536Z,49.22
2023-03-27T12:52:38.525Z,49.76